Time;durP1;ratioP1;P1;durP2;ratioP2;P2;SDS_P1;SDS_P2;PMS_P1;PMS_P2;Temp;Humidity;BMP_temperature;BMP_pressure;BME280_temperature;BME280_humidity;BME280_pressure;Samples;Min_cycle;Max_cycle;Signal;HPM_P1;HPM_P2
2022/03/16 18:23:45;;;;;;;;;30.00;27.25;;;;;12.21;74.06;101407.34;5064406;28;45923;-77
2022/03/16 18:26:14;;;;;;;;;23.25;20.25;;;;;12.18;73.51;101370.56;5049757;28;45375;-76
2022/03/16 18:28:39;;;;;;;;;26.50;24.25;;;;;12.19;72.96;101335.53;5052459;28;45386;-75
2022/03/16 18:31:05;;;;;;;;;26.00;24.00;;;;;12.56;72.46;101370.72;5050606;28;45298;-76
2022/03/16 18:33:31;;;;;;;;;29.25;21.75;;;;;12.51;72.20;101336.56;5047681;28;47292;-72
2022/03/16 18:35:58;;;;;;;;;28.50;25.50;;;;;13.11;71.64;101417.34;5048629;28;45393;-76
2022/03/16 18:38:24;;;;;;;;;27.75;23.00;;;;;12.95;71.54;101361.19;5048926;28;45528;-74
2022/03/16 18:40:51;;;;;;;;;25.00;23.00;;;;;13.38;70.78;101426.19;5047848;28;45430;-73
2022/03/16 18:43:18;;;;;;;;;29.75;25.75;;;;;12.93;70.74;101328.75;5052271;28;45627;-76
2022/03/16 18:45:45;;;;;;;;;28.00;25.25;;;;;13.10;69.95;101334.94;5051397;28;45648;-77
2022/03/16 18:48:12;;;;;;;;;28.50;27.50;;;;;13.05;69.75;101313.03;5052508;28;45418;-77
2022/03/16 18:50:43;;;;;;;;;25.75;24.25;;;;;13.52;69.76;101375.31;5051815;28;45255;-74
2022/03/16 18:53:10;;;;;;;;;25.00;23.25;;;;;13.84;69.33;101415.72;5050814;28;46541;-76
2022/03/16 18:55:38;;;;;;;;;27.50;23.75;;;;;13.67;69.51;101385.00;5047174;28;46804;-75
2022/03/16 18:58:05;;;;;;;;;25.00;20.25;;;;;13.94;68.75;101425.34;5049451;28;45645;-72
2022/03/16 19:00:32;;;;;;;;;34.00;29.00;;;;;13.87;68.96;101410.44;5050168;28;45386;-70
2022/03/16 19:02:58;;;;;;;;;28.25;25.25;;;;;13.79;68.71;101400.78;5045243;28;46139;-73
2022/03/16 19:05:23;;;;;;;;;28.00;26.25;;;;;14.02;68.87;101433.22;5065237;28;45556;-80
2022/03/16 19:07:53;;;;;;;;;29.75;28.50;;;;;14.05;68.83;101438.47;5052030;28;45473;-76
2022/03/16 19:10:19;;;;;;;;;29.00;23.50;;;;;13.94;68.37;101418.31;5049517;28;45495;-80
2022/03/16 19:15:29;;;;;;;;;24.25;21.50;;;;;14.15;68.06;101459.56;5050381;28;45311;-74
2022/03/16 19:17:56;;;;;;;;;26.50;19.50;;;;;13.76;68.26;101381.47;5050791;28;45568;-77
2022/03/16 19:20:23;;;;;;;;;31.75;26.00;;;;;14.18;68.29;101448.13;5054348;28;45433;-80
2022/03/16 19:22:53;;;;;;;;;24.00;23.00;;;;;14.20;67.88;101465.69;5074894;27;45481;-79
2022/03/16 19:25:20;;;;;;;;;30.25;26.50;;;;;14.07;67.87;101439.38;5076831;28;45795;-79
2022/03/16 19:27:49;;;;;;;;;29.00;24.50;;;;;14.03;67.82;101446.41;5055197;28;45705;-77
2022/03/16 19:30:19;;;;;;;;;26.75;23.25;;;;;13.76;67.81;101386.72;5073370;28;45623;-77
2022/03/16 19:32:45;;;;;;;;;31.25;23.50;;;;;14.17;67.67;101459.56;5078171;28;46381;-80
2022/03/16 19:35:11;;;;;;;;;32.25;28.50;;;;;13.99;67.93;101424.44;5037572;28;45327;-75
2022/03/16 19:37:37;;;;;;;;;31.75;24.50;;;;;14.04;67.64;101432.34;5058174;28;45365;-78
2022/03/16 19:40:06;;;;;;;;;29.25;23.25;;;;;14.25;67.56;101468.31;5059480;28;45550;-74
2022/03/16 19:42:34;;;;;;;;;24.00;21.75;;;;;13.89;67.31;101395.50;5057401;28;45360;-72
2022/03/16 19:45:01;;;;;;;;;28.00;23.75;;;;;14.23;67.40;101466.56;5055938;28;45828;-79
2022/03/16 19:47:26;;;;;;;;;27.00;24.00;;;;;14.32;67.68;101483.25;5059202;28;45442;-74
2022/03/16 19:49:55;;;;;;;;;28.50;24.75;;;;;14.32;67.01;101483.25;5057508;28;45420;-77
2022/03/16 19:52:21;;;;;;;;;29.00;24.25;;;;;14.18;67.41;101462.19;5054211;28;45594;-69
2022/03/16 19:54:57;;;;;;;;;24.75;24.25;;;;;14.23;67.17;101474.47;5053410;28;45464;-73
2022/03/16 19:57:22;;;;;;;;;29.00;25.00;;;;;14.35;67.60;101491.13;5054229;28;45634;-73
2022/03/16 19:59:48;;;;;;;;;28.00;23.75;;;;;14.14;67.39;101464.81;5055800;28;45287;-77
2022/03/16 20:02:14;;;;;;;;;32.50;27.00;;;;;14.21;67.47;101467.47;5058992;28;45875;-77
2022/03/16 20:04:40;;;;;;;;;33.75;26.00;;;;;13.93;67.62;101419.22;5059107;28;45470;-77
2022/03/16 20:07:06;;;;;;;;;27.50;26.25;;;;;14.23;67.27;101470.09;5056436;28;45716;-72
2022/03/16 20:09:36;;;;;;;;;24.00;23.50;;;;;14.40;67.60;101493.78;5037901;28;45478;-68
2022/03/16 20:12:01;;;;;;;;;30.00;25.25;;;;;14.32;66.99;101477.97;5057728;28;45454;-70
2022/03/16 20:14:27;;;;;;;;;30.00;27.25;;;;;14.42;67.64;101502.56;5055224;28;45820;-68
2022/03/16 20:16:59;;;;;;;;;24.25;23.00;;;;;14.38;67.38;101501.69;5056652;28;45312;-69
2022/03/16 20:19:25;;;;;;;;;33.25;25.00;;;;;14.36;67.22;101502.59;5058117;28;45564;-68
2022/03/16 20:21:51;;;;;;;;;29.00;23.00;;;;;14.40;67.07;101510.47;5059585;28;45446;-71
2022/03/16 20:24:17;;;;;;;;;28.50;21.00;;;;;14.28;67.14;101497.28;5057482;28;45328;-69
2022/03/16 20:26:45;;;;;;;;;27.00;22.25;;;;;14.46;66.88;101527.16;5058681;28;45336;-68
2022/03/16 20:29:10;;;;;;;;;26.75;21.75;;;;;14.27;66.98;101494.69;5058101;28;45463;-69
2022/03/16 20:31:38;;;;;;;;;20.75;18.50;;;;;14.26;66.91;101506.09;5055195;28;47643;-70
2022/03/16 20:34:04;;;;;;;;;27.00;22.75;;;;;14.45;66.76;101538.56;5055869;28;45767;-69
2022/03/16 20:36:31;;;;;;;;;24.00;19.25;;;;;14.23;67.00;101511.38;5038448;28;45334;-74
2022/03/16 20:38:58;;;;;;;;;29.75;23.00;;;;;14.36;66.76;101527.16;5038735;28;45484;-71
2022/03/16 20:41:23;;;;;;;;;26.00;22.00;;;;;14.35;66.94;101528.03;5056774;28;45367;-68
2022/03/16 20:43:49;;;;;;;;;22.25;22.25;;;;;14.41;66.83;101546.50;5056447;28;45449;-71
2022/03/16 20:46:15;;;;;;;;;21.75;20.75;;;;;14.45;66.74;101549.13;5055277;28;45291;-73
2022/03/16 20:48:46;;;;;;;;;30.00;23.75;;;;;14.45;66.86;101550.00;5056725;28;45504;-72
2022/03/16 20:51:14;;;;;;;;;24.25;20.00;;;;;14.36;66.94;101536.84;5060890;28;46203;-74
2022/03/16 20:53:40;;;;;;;;;26.50;17.50;;;;;14.23;66.48;101512.25;5059854;28;45493;-75
2022/03/16 20:56:07;;;;;;;;;24.00;19.75;;;;;14.30;66.75;101528.94;5059828;28;45228;-74
2022/03/16 21:01:17;;;;;;;;;22.25;20.00;;;;;14.00;66.80;101492.06;5059932;28;45592;-76
2022/03/16 21:03:44;;;;;;;;;26.00;20.25;;;;;14.41;66.93;101559.66;5059116;28;45360;-74
2022/03/16 21:06:10;;;;;;;;;30.25;27.50;;;;;14.00;66.67;101505.22;5049706;28;45681;-76
2022/03/16 21:08:38;;;;;;;;;21.25;17.50;;;;;14.35;67.12;101593.03;5023127;28;45387;-77
2022/03/16 21:11:04;;;;;;;;;28.75;19.75;;;;;14.22;67.24;101573.72;5040419;28;46407;-77
2022/03/16 21:13:31;;;;;;;;;21.25;17.00;;;;;14.35;66.91;101590.41;5037743;28;45758;-76
2022/03/16 21:16:00;;;;;;;;;23.00;19.00;;;;;14.23;67.60;101582.50;5018266;28;45713;-75
2022/03/16 21:18:27;;;;;;;;;22.50;21.00;;;;;14.29;68.35;101611.50;5035789;28;45348;-77
2022/03/16 21:20:55;;;;;;;;;24.00;17.50;;;;;14.37;67.98;101652.78;5037340;28;46285;-78
2022/03/16 21:23:22;;;;;;;;;22.25;19.00;;;;;14.17;67.75;101618.50;5038807;28;45375;-78
2022/03/16 21:25:58;;;;;;;;;17.67;14.67;;;;;14.29;66.85;101653.66;5034832;28;45443;-79
2022/03/16 21:28:31;;;;;;;;;15.67;12.67;;;;;14.21;66.36;101656.25;5038592;28;45536;-73
2022/03/16 21:30:57;;;;;;;;;11.67;10.67;;;;;14.14;65.77;101655.41;5045793;28;46623;-76
2022/03/16 21:33:28;;;;;;;;;9.00;7.00;;;;;14.25;64.68;101680.88;5035009;28;45318;-73
2022/03/16 21:35:54;;;;;;;;;8.00;5.00;;;;;14.20;63.92;101696.69;5046478;28;45467;-78
2022/03/16 21:38:19;;;;;;;;;3.33;3.00;;;;;14.09;63.23;101682.59;5025236;28;45558;-81
2022/03/16 21:43:38;;;;;;;;;2.00;2.00;;;;;14.10;62.81;101695.78;5054243;28;45395;-75
2022/03/16 21:46:12;;;;;;;;;0.00;0.00;;;;;14.09;62.34;101685.22;5052736;28;45378;-84
2022/03/16 21:48:42;;;;;;;;;2.00;2.00;;;;;14.08;62.20;101694.03;5046237;28;45451;-76
2022/03/16 21:53:45;;;;;;;;;7.33;2.00;;;;;14.02;62.03;101697.50;5044820;28;45366;-78
2022/03/16 21:56:15;;;;;;;;;1.00;1.00;;;;;13.96;61.57;101685.19;5041571;28;45402;-78
2022/03/16 21:58:43;;;;;;;;;4.67;3.67;;;;;13.81;61.59;101664.09;5043027;28;45353;-80
2022/03/16 22:01:10;;;;;;;;;7.33;6.00;;;;;13.96;61.65;101684.31;5045185;28;45446;-80
2022/03/16 22:03:45;;;;;;;;;4.00;4.00;;;;;14.00;61.32;101694.88;5042329;28;45575;-80
2022/03/16 22:06:16;;;;;;;;;4.00;4.00;;;;;13.89;61.22;101678.16;5057940;28;45509;-80
2022/03/16 22:08:47;;;;;;;;;2.00;2.00;;;;;13.97;61.23;101693.97;5063738;28;45464;-80
2022/03/16 22:11:14;;;;;;;;;1.00;1.00;;;;;13.95;61.22;101685.19;5037010;28;46607;-78
2022/03/16 22:13:42;;;;;;;;;4.00;2.00;;;;;13.69;61.38;101649.13;5046874;28;45461;-80
2022/03/16 22:16:11;;;;;;;;;2.00;2.00;;;;;13.99;60.62;101706.28;5044093;28;45489;-78
2022/03/16 22:18:37;;;;;;;;;2.67;2.67;;;;;13.98;60.87;101701.88;5049173;28;45438;-79
2022/03/16 22:21:21;;;;;;;;;2.00;2.00;;;;;13.82;60.67;101673.75;5058390;28;45287;-77
2022/03/16 22:23:58;;;;;;;;;2.00;2.00;;;;;13.97;60.56;101705.38;5056442;28;45436;-79
2022/03/16 22:26:34;;;;;;;;;3.67;2.00;;;;;13.97;59.85;101708.00;5061245;28;45472;-82
2022/03/16 22:29:00;;;;;;;;;2.00;2.00;;;;;13.69;60.30;101662.28;5054794;28;45343;-76
2022/03/16 22:31:26;;;;;;;;;5.67;5.00;;;;;13.73;60.43;101665.81;5036406;28;46785;-81
2022/03/16 22:33:52;;;;;;;;;5.00;5.00;;;;;13.98;60.69;101706.28;5056829;28;45509;-80
2022/03/16 22:36:25;;;;;;;;;5.00;4.00;;;;;13.98;59.97;101716.81;5038974;28;45422;-83
2022/03/16 22:38:52;;;;;;;;;1.00;1.00;;;;;13.98;60.41;101716.81;5059921;28;45446;-81
2022/03/16 22:41:20;;;;;;;;;1.33;1.33;;;;;13.98;59.93;101722.09;5057071;28;46189;-79
2022/03/16 22:43:46;;;;;;;;;2.00;2.00;;;;;13.98;60.28;101722.09;5054999;28;45409;-80
2022/03/16 22:46:17;;;;;;;;;2.67;2.00;;;;;13.79;60.38;101706.22;5055188;28;45713;-80
2022/03/16 22:48:44;;;;;;;;;4.00;2.00;;;;;13.90;60.17;101723.78;5048511;28;45878;-77
2022/03/16 22:51:09;;;;;;;;;2.00;2.00;;;;;13.70;59.54;101689.50;5052977;28;47886;-80
2022/03/16 22:53:36;;;;;;;;;2.00;2.00;;;;;13.83;59.71;101719.38;5057467;28;45708;-78
2022/03/16 22:56:02;;;;;;;;;2.00;2.00;;;;;13.78;59.93;101708.81;5057822;28;45422;-75
2022/03/16 22:58:28;;;;;;;;;2.33;2.33;;;;;13.88;59.38;101728.16;5058914;28;45360;-79
2022/03/16 23:00:54;;;;;;;;;3.33;1.67;;;;;13.77;59.88;101713.22;5036594;28;46281;-77
2022/03/16 23:03:22;;;;;;;;;5.00;2.67;;;;;13.87;59.48;101729.94;5032541;28;45601;-73
2022/03/16 23:05:54;;;;;;;;;3.00;3.00;;;;;13.85;59.64;101725.53;5043552;28;45465;-78
2022/03/16 23:08:22;;;;;;;;;3.00;3.00;;;;;13.94;59.63;101747.53;5050486;28;45581;-79
2022/03/16 23:10:48;;;;;;;;;5.67;3.67;;;;;13.70;59.49;101718.44;5057350;28;46126;-76
2022/03/16 23:13:14;;;;;;;;;4.00;4.00;;;;;13.88;59.81;101750.16;5047100;28;45568;-70
2022/03/16 23:15:40;;;;;;;;;5.00;4.00;;;;;13.76;59.45;101729.00;5055099;28;45580;-78
2022/03/16 23:18:05;;;;;;;;;4.67;2.67;;;;;13.82;58.83;101736.94;5055204;28;45315;-75
2022/03/16 23:20:33;;;;;;;;;3.00;3.00;;;;;13.78;59.36;101729.88;5053219;28;46440;-76
2022/03/16 23:23:02;;;;;;;;;2.33;2.33;;;;;13.88;59.47;101749.25;5056325;28;45849;-73
2022/03/16 23:25:28;;;;;;;;;4.67;4.67;;;;;13.84;59.51;101742.22;5054414;28;45418;-76
2022/03/16 23:27:54;;;;;;;;;4.33;2.33;;;;;13.67;58.89;101721.97;5057083;28;45262;-74
2022/03/16 23:30:20;;;;;;;;;5.00;3.67;;;;;13.57;59.32;101710.50;5058822;28;46148;-73
2022/03/16 23:32:46;;;;;;;;;3.33;3.33;;;;;13.88;59.83;101757.13;5057568;28;46481;-75
2022/03/16 23:35:12;;;;;;;;;4.00;4.00;;;;;13.65;59.24;101718.44;5059057;28;45676;-76
2022/03/16 23:37:39;;;;;;;;;5.00;4.00;;;;;13.47;59.01;101692.88;5056926;28;45440;-73
2022/03/16 23:40:08;;;;;;;;;4.67;3.00;;;;;13.78;59.18;101751.81;5053765;28;46015;-74
2022/03/16 23:42:34;;;;;;;;;6.67;4.33;;;;;13.36;58.79;101692.84;5056897;28;45520;-76
2022/03/16 23:45:00;;;;;;;;;6.00;5.00;;;;;13.82;58.74;101773.81;5054570;28;45324;-75
2022/03/16 23:47:25;;;;;;;;;6.00;4.00;;;;;13.81;59.07;101777.31;5055498;28;45547;-76
2022/03/16 23:49:51;;;;;;;;;4.00;4.00;;;;;13.50;58.92;101732.41;5053526;28;46455;-74
2022/03/16 23:52:17;;;;;;;;;7.00;4.33;;;;;13.71;59.38;101779.00;5056182;28;45632;-71
2022/03/16 23:54:44;;;;;;;;;7.33;5.00;;;;;13.62;59.16;101767.53;5057986;28;45469;-73
2022/03/16 23:57:14;;;;;;;;;3.00;3.00;;;;;13.70;58.73;101790.41;5059165;28;45478;-73
2022/03/16 23:59:40;;;;;;;;;5.67;5.67;;;;;13.70;59.04;101802.69;5054571;28;46114;-73
